Time;durP1;ratioP1;P1;durP2;ratioP2;P2;SDS_P1;SDS_P2;PMS_P1;PMS_P2;Temp;Humidity;BMP_temperature;BMP_pressure;BME280_temperature;BME280_humidity;BME280_pressure;Samples;Min_cycle;Max_cycle;Signal;HPM_P1;HPM_P2
2022/06/25 00:01:09;;;;;;;13.05;9.13;;;;;;;;;;5087850;28;20036;-63
2022/06/25 00:03:36;;;;;;;13.98;9.80;;;;;;;;;;5110598;28;20391;-64
2022/06/25 00:06:02;;;;;;;11.25;8.95;;;;;;;;;;5110506;28;20070;-64
2022/06/25 00:08:27;;;;;;;12.15;8.98;;;;;;;;;;5109034;28;20036;-64
2022/06/25 00:10:53;;;;;;;14.25;8.60;;;;;;;;;;5092891;28;20361;-64
2022/06/25 00:13:20;;;;;;;11.05;8.32;;;;;;;;;;5112251;28;20430;-64
2022/06/25 00:15:46;;;;;;;10.35;8.38;;;;;;;;;;5110399;28;20035;-64
2022/06/25 00:18:11;;;;;;;10.15;8.57;;;;;;;;;;5109224;28;20028;-64
2022/06/25 00:20:37;;;;;;;11.60;7.97;;;;;;;;;;5111376;28;20035;-64
2022/06/25 00:23:03;;;;;;;12.75;8.68;;;;;;;;;;5110154;28;20036;-64
2022/06/25 00:25:29;;;;;;;11.88;8.20;;;;;;;;;;5110050;28;20034;-63
2022/06/25 00:27:54;;;;;;;11.82;8.93;;;;;;;;;;5109918;28;20023;-63
2022/06/25 00:30:20;;;;;;;10.27;8.32;;;;;;;;;;5110271;28;20035;-63
2022/06/25 00:32:45;;;;;;;15.07;8.70;;;;;;;;;;5110136;28;20036;-64
2022/06/25 00:35:11;;;;;;;13.88;9.02;;;;;;;;;;5104354;28;20085;-64
2022/06/25 00:37:36;;;;;;;10.50;8.27;;;;;;;;;;5099835;28;20051;-63
2022/06/25 00:40:03;;;;;;;9.63;8.07;;;;;;;;;;5108910;28;20471;-64
2022/06/25 00:42:28;;;;;;;9.60;7.30;;;;;;;;;;5111573;28;20402;-63
2022/06/25 00:44:55;;;;;;;10.32;7.20;;;;;;;;;;5107854;28;20046;-64
2022/06/25 00:47:21;;;;;;;11.98;7.53;;;;;;;;;;5112020;28;20036;-64
2022/06/25 00:49:47;;;;;;;10.60;7.72;;;;;;;;;;5090800;28;20040;-64
2022/06/25 00:52:16;;;;;;;9.90;7.28;;;;;;;;;;5110756;28;20088;-63
2022/06/25 00:54:58;;;;;;;10.27;7.65;;;;;;;;;;5107830;28;20127;-64
2022/06/25 00:57:26;;;;;;;9.45;7.28;;;;;;;;;;5111884;28;20028;-63
2022/06/25 00:59:53;;;;;;;9.43;7.22;;;;;;;;;;5108961;28;20088;-64
2022/06/25 01:02:22;;;;;;;11.27;7.82;;;;;;;;;;5109925;28;20212;-64
2022/06/25 01:04:49;;;;;;;11.00;7.97;;;;;;;;;;5102979;28;20398;-64
2022/06/25 01:07:15;;;;;;;10.65;7.07;;;;;;;;;;5104315;28;20035;-63
2022/06/25 01:09:41;;;;;;;10.30;7.05;;;;;;;;;;5109111;28;20429;-63
2022/06/25 01:12:07;;;;;;;10.05;6.15;;;;;;;;;;5109205;28;20035;-64
2022/06/25 01:14:34;;;;;;;10.13;6.53;;;;;;;;;;5111925;28;20036;-63
2022/06/25 01:17:03;;;;;;;9.02;6.93;;;;;;;;;;5106165;28;20053;-64
2022/06/25 01:19:29;;;;;;;9.73;6.60;;;;;;;;;;5108959;28;20483;-63
2022/06/25 01:21:59;;;;;;;9.05;6.30;;;;;;;;;;5107231;28;20032;-63
2022/06/25 01:24:25;;;;;;;8.65;6.30;;;;;;;;;;5111906;28;20521;-63
2022/06/25 01:26:50;;;;;;;10.73;6.53;;;;;;;;;;5110104;28;20031;-64
2022/06/25 01:29:16;;;;;;;7.60;6.35;;;;;;;;;;5107561;28;20077;-64
2022/06/25 01:31:41;;;;;;;8.07;6.05;;;;;;;;;;5110263;28;20391;-63
2022/06/25 01:34:06;;;;;;;11.30;6.70;;;;;;;;;;5110252;28;20114;-63
2022/06/25 01:36:32;;;;;;;7.40;5.63;;;;;;;;;;5105951;28;20032;-63
2022/06/25 01:38:57;;;;;;;8.27;5.72;;;;;;;;;;5109725;28;20059;-63
2022/06/25 01:41:23;;;;;;;8.35;5.93;;;;;;;;;;5096842;28;20031;-63
2022/06/25 01:43:48;;;;;;;7.68;5.85;;;;;;;;;;5112621;28;20023;-64
2022/06/25 01:46:14;;;;;;;10.30;6.10;;;;;;;;;;5111976;28;20027;-64
2022/06/25 01:48:39;;;;;;;8.38;5.90;;;;;;;;;;5111635;28;20539;-63
2022/06/25 01:51:05;;;;;;;7.00;5.40;;;;;;;;;;5112666;28;20120;-63
2022/06/25 01:53:31;;;;;;;10.50;5.40;;;;;;;;;;5111469;28;20043;-63
2022/06/25 01:55:56;;;;;;;8.50;5.00;;;;;;;;;;5114043;28;20444;-64
2022/06/25 01:58:22;;;;;;;8.20;5.40;;;;;;;;;;5111864;28;20429;-63
2022/06/25 02:00:48;;;;;;;6.80;5.63;;;;;;;;;;5111431;28;20032;-64
2022/06/25 02:03:14;;;;;;;6.93;5.38;;;;;;;;;;5112923;28;20085;-64
2022/06/25 02:05:56;;;;;;;11.18;5.50;;;;;;;;;;5114581;28;20035;-64
2022/06/25 02:08:23;;;;;;;8.18;5.10;;;;;;;;;;5111929;28;20456;-63
2022/06/25 02:10:49;;;;;;;9.10;5.10;;;;;;;;;;5113809;28;20024;-63
2022/06/25 02:13:15;;;;;;;10.18;4.78;;;;;;;;;;5113403;28;20529;-63
2022/06/25 02:15:41;;;;;;;9.48;4.68;;;;;;;;;;5114392;28;20055;-63
2022/06/25 02:18:08;;;;;;;7.70;4.78;;;;;;;;;;5110018;28;20527;-63
2022/06/25 02:20:34;;;;;;;9.52;4.82;;;;;;;;;;5112719;28;20115;-63
2022/06/25 02:22:59;;;;;;;9.10;4.55;;;;;;;;;;5112284;28;20032;-63
2022/06/25 02:25:25;;;;;;;5.95;4.50;;;;;;;;;;5111741;28;20039;-63
2022/06/25 02:27:51;;;;;;;7.40;4.10;;;;;;;;;;5112569;28;20458;-63
2022/06/25 02:30:16;;;;;;;8.05;4.47;;;;;;;;;;5114765;28;20063;-63
2022/06/25 02:32:42;;;;;;;7.05;4.50;;;;;;;;;;5112945;28;20027;-64
2022/06/25 02:35:08;;;;;;;8.13;4.38;;;;;;;;;;5113542;28;20262;-63
2022/06/25 02:37:33;;;;;;;12.30;4.30;;;;;;;;;;5089596;28;20028;-63
2022/06/25 02:39:58;;;;;;;8.27;4.30;;;;;;;;;;5111948;28;20102;-63
2022/06/25 02:42:24;;;;;;;6.43;4.13;;;;;;;;;;5114379;28;20432;-63
2022/06/25 02:44:49;;;;;;;7.90;4.30;;;;;;;;;;5113351;28;20036;-63
2022/06/25 02:47:15;;;;;;;9.73;4.30;;;;;;;;;;5109994;28;20534;-63
2022/06/25 02:49:41;;;;;;;8.98;4.22;;;;;;;;;;5111860;28;20031;-63
2022/06/25 02:52:06;;;;;;;6.50;4.50;;;;;;;;;;5113355;28;20126;-62
2022/06/25 02:54:32;;;;;;;7.03;4.40;;;;;;;;;;5112518;28;20039;-63
2022/06/25 02:59:42;;;;;;;7.30;4.50;;;;;;;;;;5112534;28;20050;-63
2022/06/25 03:02:08;;;;;;;7.97;4.30;;;;;;;;;;5112881;28;20682;-63
2022/06/25 03:04:34;;;;;;;7.63;4.40;;;;;;;;;;5112140;28;20024;-62
2022/06/25 03:06:59;;;;;;;9.13;4.65;;;;;;;;;;5103253;28;20031;-63
2022/06/25 03:09:25;;;;;;;8.18;4.05;;;;;;;;;;5110635;28;20475;-63
2022/06/25 03:11:50;;;;;;;14.13;4.82;;;;;;;;;;5112235;28;20037;-63
2022/06/25 03:14:16;;;;;;;9.63;4.80;;;;;;;;;;5112596;28;20030;-62
2022/06/25 03:16:43;;;;;;;8.15;4.50;;;;;;;;;;5110084;28;20456;-63
2022/06/25 03:19:09;;;;;;;6.90;4.50;;;;;;;;;;5110317;28;20123;-62
2022/06/25 03:21:34;;;;;;;6.20;4.10;;;;;;;;;;5112366;28;20069;-62
2022/06/25 03:24:00;;;;;;;6.28;4.53;;;;;;;;;;5101462;28;20032;-62
2022/06/25 03:26:26;;;;;;;9.88;4.50;;;;;;;;;;5092529;28;20028;-63
2022/06/25 03:28:51;;;;;;;7.15;4.40;;;;;;;;;;5100726;28;20055;-62
2022/06/25 03:31:16;;;;;;;6.00;4.20;;;;;;;;;;5109740;28;20110;-62
2022/06/25 03:33:42;;;;;;;8.13;4.57;;;;;;;;;;5110982;28;20111;-62
2022/06/25 03:36:07;;;;;;;7.50;4.65;;;;;;;;;;5108432;28;20498;-63
2022/06/25 03:38:33;;;;;;;8.48;4.60;;;;;;;;;;5108685;28;20065;-62
2022/06/25 03:43:42;;;;;;;8.55;4.90;;;;;;;;;;5103933;28;20486;-63
2022/06/25 03:46:08;;;;;;;6.65;4.68;;;;;;;;;;5111855;28;20027;-63
2022/06/25 03:48:33;;;;;;;6.13;4.55;;;;;;;;;;5111597;28;20039;-63
2022/06/25 03:50:59;;;;;;;9.15;4.80;;;;;;;;;;5111879;28;20032;-62
2022/06/25 03:53:24;;;;;;;11.05;4.78;;;;;;;;;;5111848;28;20119;-63
2022/06/25 03:55:50;;;;;;;6.47;4.35;;;;;;;;;;5112681;28;20036;-62
2022/06/25 03:58:15;;;;;;;7.85;4.72;;;;;;;;;;5110128;28;20049;-63
2022/06/25 04:00:41;;;;;;;8.52;4.55;;;;;;;;;;5112506;28;20027;-62
2022/06/25 04:03:06;;;;;;;9.48;5.03;;;;;;;;;;5110104;28;20463;-63
2022/06/25 04:05:31;;;;;;;8.10;4.57;;;;;;;;;;5106056;28;20432;-63
2022/06/25 04:07:57;;;;;;;7.45;4.63;;;;;;;;;;5110955;28;20035;-63
2022/06/25 04:10:22;;;;;;;6.40;4.78;;;;;;;;;;5111203;28;20027;-63
2022/06/25 04:12:48;;;;;;;8.55;4.80;;;;;;;;;;5111740;28;20110;-62
2022/06/25 04:15:13;;;;;;;7.75;4.80;;;;;;;;;;5107758;28;20114;-62
2022/06/25 04:17:39;;;;;;;9.05;4.88;;;;;;;;;;5112748;28;20028;-63
2022/06/25 04:20:04;;;;;;;6.45;4.30;;;;;;;;;;5109793;28;20088;-62
2022/06/25 04:22:30;;;;;;;8.82;4.68;;;;;;;;;;5111235;28;20119;-63
2022/06/25 04:24:55;;;;;;;6.57;4.30;;;;;;;;;;5107830;28;20080;-63
2022/06/25 04:30:06;;;;;;;5.82;4.22;;;;;;;;;;5108275;28;20035;-63
2022/06/25 04:32:31;;;;;;;7.25;4.15;;;;;;;;;;5112358;28;20030;-63
2022/06/25 04:34:56;;;;;;;5.95;4.30;;;;;;;;;;5109403;28;20332;-63
2022/06/25 04:37:22;;;;;;;6.82;4.35;;;;;;;;;;5110566;28;20030;-64
2022/06/25 04:39:47;;;;;;;6.40;4.15;;;;;;;;;;5108354;28;20475;-63
2022/06/25 04:42:13;;;;;;;8.10;4.22;;;;;;;;;;5111551;28;20034;-62
2022/06/25 04:44:38;;;;;;;5.75;4.13;;;;;;;;;;5109814;28;20093;-62
2022/06/25 04:47:04;;;;;;;8.27;4.57;;;;;;;;;;5110049;28;20038;-62
2022/06/25 04:49:29;;;;;;;6.28;3.85;;;;;;;;;;5092034;28;20464;-62
2022/06/25 04:51:55;;;;;;;6.20;4.00;;;;;;;;;;5110251;28;20027;-62
2022/06/25 04:54:20;;;;;;;8.27;4.18;;;;;;;;;;5106800;28;20075;-62
2022/06/25 04:56:45;;;;;;;6.75;4.07;;;;;;;;;;5108497;28;20027;-62
2022/06/25 04:59:11;;;;;;;7.93;3.80;;;;;;;;;;5110229;28;20067;-62
2022/06/25 05:01:36;;;;;;;8.00;3.55;;;;;;;;;;5108300;28;20032;-62
2022/06/25 05:04:02;;;;;;;7.00;3.63;;;;;;;;;;5109037;28;20028;-63
2022/06/25 05:06:27;;;;;;;5.28;3.75;;;;;;;;;;5108999;28;20468;-62
2022/06/25 05:08:53;;;;;;;8.10;3.42;;;;;;;;;;5090361;28;20039;-62
2022/06/25 05:11:18;;;;;;;8.63;3.80;;;;;;;;;;5092893;28;20523;-63
2022/06/25 05:13:43;;;;;;;7.32;3.90;;;;;;;;;;5112605;28;20054;-63
2022/06/25 05:16:09;;;;;;;4.80;3.30;;;;;;;;;;5110925;28;20478;-62
2022/06/25 05:18:34;;;;;;;6.10;3.58;;;;;;;;;;5113693;28;20087;-62
2022/06/25 05:21:01;;;;;;;6.22;3.55;;;;;;;;;;5115213;28;20032;-63
2022/06/25 05:23:27;;;;;;;7.20;3.75;;;;;;;;;;5114570;28;20034;-62
2022/06/25 05:25:52;;;;;;;6.97;3.55;;;;;;;;;;5115779;28;20035;-62
2022/06/25 05:28:18;;;;;;;5.50;3.28;;;;;;;;;;5113705;28;20632;-62
2022/06/25 05:30:43;;;;;;;6.18;3.40;;;;;;;;;;5115858;28;20053;-61
2022/06/25 05:33:09;;;;;;;4.68;2.90;;;;;;;;;;5113174;28;20471;-62
2022/06/25 05:35:34;;;;;;;6.38;3.42;;;;;;;;;;5111948;28;20044;-62
2022/06/25 05:38:00;;;;;;;4.82;3.35;;;;;;;;;;5104534;28;20039;-62
2022/06/25 05:40:25;;;;;;;7.32;3.40;;;;;;;;;;5103802;28;20456;-61
2022/06/25 05:42:51;;;;;;;7.55;3.35;;;;;;;;;;5106176;28;20035;-63
2022/06/25 05:45:16;;;;;;;4.80;3.10;;;;;;;;;;5095921;28;20084;-62
2022/06/25 05:47:42;;;;;;;4.50;3.60;;;;;;;;;;5113732;28;20487;-62
2022/06/25 05:50:08;;;;;;;5.82;3.53;;;;;;;;;;5113965;28;20059;-63
2022/06/25 05:52:34;;;;;;;5.35;3.17;;;;;;;;;;5113922;28;20055;-62
2022/06/25 05:55:00;;;;;;;7.60;3.22;;;;;;;;;;5110979;28;20036;-62
2022/06/25 05:57:26;;;;;;;6.15;3.33;;;;;;;;;;5114470;28;20090;-62
2022/06/25 05:59:52;;;;;;;8.23;3.75;;;;;;;;;;5112444;28;20020;-62
2022/06/25 06:02:18;;;;;;;6.78;3.00;;;;;;;;;;5112533;28;20632;-62
2022/06/25 06:04:43;;;;;;;4.63;3.30;;;;;;;;;;5101669;28;20035;-62
2022/06/25 06:07:08;;;;;;;5.70;3.30;;;;;;;;;;5099145;28;20044;-62
2022/06/25 06:09:34;;;;;;;6.53;3.17;;;;;;;;;;5096502;28;20036;-61
2022/06/25 06:12:00;;;;;;;4.38;3.22;;;;;;;;;;5104001;28;20550;-62
2022/06/25 06:14:25;;;;;;;5.93;3.20;;;;;;;;;;5094356;28;20379;-62
2022/06/25 06:16:51;;;;;;;4.93;3.22;;;;;;;;;;5114677;28;20080;-62
2022/06/25 06:19:17;;;;;;;5.75;3.30;;;;;;;;;;5094067;28;20480;-62
2022/06/25 06:21:42;;;;;;;6.13;3.15;;;;;;;;;;5104767;28;20457;-62
2022/06/25 06:24:08;;;;;;;5.85;3.17;;;;;;;;;;5102287;28;20039;-62
2022/06/25 06:26:34;;;;;;;5.30;3.08;;;;;;;;;;5112042;28;20036;-62
2022/06/25 06:29:00;;;;;;;9.85;3.00;;;;;;;;;;5091971;28;20049;-62
2022/06/25 06:31:25;;;;;;;5.95;3.20;;;;;;;;;;5112780;28;20036;-62
2022/06/25 06:33:51;;;;;;;6.25;3.13;;;;;;;;;;5112529;28;20379;-62
2022/06/25 06:36:16;;;;;;;15.30;3.42;;;;;;;;;;5112104;28;20035;-62
2022/06/25 06:38:42;;;;;;;5.63;3.03;;;;;;;;;;5112959;28;20069;-62
2022/06/25 06:41:07;;;;;;;4.05;2.85;;;;;;;;;;5113221;28;20027;-62
2022/06/25 06:43:33;;;;;;;6.22;2.90;;;;;;;;;;5113160;28;20088;-62
2022/06/25 06:45:58;;;;;;;6.80;2.75;;;;;;;;;;5113660;28;20031;-62
2022/06/25 06:48:24;;;;;;;8.40;3.10;;;;;;;;;;5109152;28;20032;-62
2022/06/25 06:50:49;;;;;;;5.00;2.70;;;;;;;;;;5095650;28;20027;-62
2022/06/25 06:53:15;;;;;;;3.90;2.75;;;;;;;;;;5108708;28;20131;-62
2022/06/25 06:55:40;;;;;;;6.90;2.90;;;;;;;;;;5095020;28;20066;-62
2022/06/25 06:58:05;;;;;;;9.18;2.92;;;;;;;;;;5112872;28;20413;-62
2022/06/25 07:00:31;;;;;;;6.32;2.88;;;;;;;;;;5112939;28;20028;-62
2022/06/25 07:02:56;;;;;;;6.45;3.00;;;;;;;;;;5111486;28;20031;-63
2022/06/25 07:05:22;;;;;;;5.40;2.70;;;;;;;;;;5110453;28;20019;-63
2022/06/25 07:07:47;;;;;;;4.55;2.60;;;;;;;;;;5112980;28;20044;-63
2022/06/25 07:10:13;;;;;;;5.47;2.65;;;;;;;;;;5112924;28;20027;-63
2022/06/25 07:12:39;;;;;;;4.97;2.53;;;;;;;;;;5111863;28;20407;-62
2022/06/25 07:15:05;;;;;;;7.05;2.58;;;;;;;;;;5111957;28;20019;-62
2022/06/25 07:17:30;;;;;;;5.38;2.67;;;;;;;;;;5112834;28;20028;-63
2022/06/25 07:19:56;;;;;;;5.88;2.60;;;;;;;;;;5073947;28;20020;-62
2022/06/25 07:22:21;;;;;;;9.00;3.10;;;;;;;;;;5104856;28;20041;-62
2022/06/25 07:24:47;;;;;;;6.15;2.60;;;;;;;;;;5104158;28;20035;-62
2022/06/25 07:27:13;;;;;;;3.40;2.50;;;;;;;;;;5110431;28;20038;-62
2022/06/25 07:29:39;;;;;;;4.50;2.45;;;;;;;;;;5095418;28;20072;-62
2022/06/25 07:32:05;;;;;;;7.10;2.90;;;;;;;;;;5111912;28;20032;-62
2022/06/25 07:34:30;;;;;;;4.22;2.50;;;;;;;;;;5112622;28;20115;-62
2022/06/25 07:37:16;;;;;;;6.57;2.35;;;;;;;;;;5111289;28;20383;-62
2022/06/25 07:39:42;;;;;;;4.05;2.50;;;;;;;;;;5112000;28;20027;-62
2022/06/25 07:42:07;;;;;;;5.22;2.75;;;;;;;;;;5110971;28;20131;-63
2022/06/25 07:44:33;;;;;;;6.45;2.65;;;;;;;;;;5112989;28;20031;-61
2022/06/25 07:46:58;;;;;;;6.90;2.53;;;;;;;;;;5093470;28;20027;-61
2022/06/25 07:49:23;;;;;;;5.22;2.28;;;;;;;;;;5111700;28;20072;-63
2022/06/25 07:52:00;;;;;;;5.72;2.60;;;;;;;;;;5112479;28;20451;-62
2022/06/25 07:54:30;;;;;;;5.82;2.50;;;;;;;;;;5110330;28;20044;-62
2022/06/25 07:56:56;;;;;;;4.40;2.47;;;;;;;;;;5111768;28;20032;-62
2022/06/25 07:59:22;;;;;;;5.72;2.50;;;;;;;;;;5111805;28;20110;-62
2022/06/25 08:01:48;;;;;;;4.65;2.22;;;;;;;;;;5108733;28;20031;-62
2022/06/25 08:04:14;;;;;;;4.65;2.10;;;;;;;;;;5111237;28;20030;-62
2022/06/25 08:06:41;;;;;;;4.13;2.00;;;;;;;;;;5106169;28;20092;-62
2022/06/25 08:09:07;;;;;;;4.55;2.08;;;;;;;;;;5098179;28;20043;-62
2022/06/25 08:11:33;;;;;;;2.53;1.90;;;;;;;;;;5104677;28;20073;-61
2022/06/25 08:13:59;;;;;;;5.00;2.20;;;;;;;;;;5105548;28;20024;-62
2022/06/25 08:16:27;;;;;;;4.15;2.10;;;;;;;;;;5105037;28;20040;-62
2022/06/25 08:18:53;;;;;;;6.05;2.25;;;;;;;;;;5102935;28;20046;-62
2022/06/25 08:21:19;;;;;;;6.22;2.20;;;;;;;;;;5106870;28;20035;-61
2022/06/25 08:23:44;;;;;;;8.07;2.20;;;;;;;;;;5110630;28;20472;-61
2022/06/25 08:26:10;;;;;;;4.50;1.95;;;;;;;;;;5108941;28;20168;-61
2022/06/25 08:28:36;;;;;;;4.55;2.17;;;;;;;;;;5101220;28;20107;-62
2022/06/25 08:31:02;;;;;;;4.95;2.00;;;;;;;;;;5100821;28;20024;-62
2022/06/25 08:33:27;;;;;;;5.68;2.15;;;;;;;;;;5094787;28;20020;-61
2022/06/25 08:35:53;;;;;;;3.75;2.08;;;;;;;;;;5100077;28;20047;-62
2022/06/25 08:38:18;;;;;;;4.82;2.20;;;;;;;;;;5101314;28;20036;-61
2022/06/25 08:40:44;;;;;;;3.50;1.77;;;;;;;;;;5109178;28;20085;-61
2022/06/25 08:43:09;;;;;;;3.72;1.90;;;;;;;;;;5108408;28;20031;-62
2022/06/25 08:45:35;;;;;;;6.28;2.00;;;;;;;;;;5101942;28;20024;-61
2022/06/25 08:48:01;;;;;;;5.50;2.08;;;;;;;;;;5102765;28;20039;-61
2022/06/25 08:50:27;;;;;;;3.65;2.00;;;;;;;;;;5109085;28;20503;-61
2022/06/25 08:52:55;;;;;;;4.05;1.73;;;;;;;;;;5116167;28;20441;-61
2022/06/25 08:55:41;;;;;;;5.20;1.85;;;;;;;;;;5113978;28;20032;-61
2022/06/25 08:58:09;;;;;;;2.85;1.73;;;;;;;;;;5111988;28;20051;-60
2022/06/25 09:00:37;;;;;;;2.15;1.60;;;;;;;;;;5110360;28;20073;-61
2022/06/25 09:03:04;;;;;;;4.05;1.83;;;;;;;;;;5109399;28;20081;-61
2022/06/25 09:05:32;;;;;;;3.50;1.60;;;;;;;;;;5100458;28;20050;-61
2022/06/25 09:08:00;;;;;;;4.28;1.83;;;;;;;;;;5112277;28;20040;-60
2022/06/25 09:10:27;;;;;;;6.78;1.80;;;;;;;;;;5113677;28;20110;-61
2022/06/25 09:12:59;;;;;;;4.93;1.80;;;;;;;;;;5111247;28;20098;-61
2022/06/25 09:15:28;;;;;;;3.70;1.90;;;;;;;;;;5110233;28;20062;-60
2022/06/25 09:17:54;;;;;;;3.13;1.65;;;;;;;;;;5112329;28;20463;-67
2022/06/25 09:20:21;;;;;;;3.83;1.70;;;;;;;;;;5115507;28;20034;-66
2022/06/25 09:23:03;;;;;;;6.25;1.60;;;;;;;;;;5111498;28;20066;-65
2022/06/25 09:25:30;;;;;;;7.25;1.90;;;;;;;;;;5116327;28;20066;-66
2022/06/25 09:27:57;;;;;;;4.43;2.10;;;;;;;;;;5115877;28;20046;-66
2022/06/25 09:30:25;;;;;;;4.22;1.85;;;;;;;;;;5115335;28;20027;-66
2022/06/25 09:32:58;;;;;;;4.40;2.00;;;;;;;;;;5116084;28;20085;-66
2022/06/25 09:35:39;;;;;;;4.10;1.90;;;;;;;;;;5115248;28;20039;-65
2022/06/25 09:38:08;;;;;;;6.28;2.20;;;;;;;;;;5114816;28;20464;-66
2022/06/25 09:40:35;;;;;;;6.88;2.00;;;;;;;;;;5115332;28;20127;-66
2022/06/25 09:43:14;;;;;;;4.32;2.00;;;;;;;;;;5113789;28;20050;-66
2022/06/25 09:45:42;;;;;;;6.47;2.00;;;;;;;;;;5113203;28;20089;-61
2022/06/25 09:48:12;;;;;;;5.63;1.90;;;;;;;;;;5112943;28;20476;-62
2022/06/25 09:50:37;;;;;;;8.53;2.20;;;;;;;;;;5114719;28;20035;-61
2022/06/25 09:53:03;;;;;;;5.15;2.00;;;;;;;;;;5114754;28;20055;-62
2022/06/25 09:55:31;;;;;;;5.05;1.95;;;;;;;;;;5114130;28;20092;-61
2022/06/25 09:57:59;;;;;;;2.80;1.80;;;;;;;;;;5115701;28;20024;-61
2022/06/25 10:00:25;;;;;;;3.15;1.90;;;;;;;;;;5095324;28;20387;-61
2022/06/25 10:02:51;;;;;;;5.53;2.30;;;;;;;;;;5115447;28;20028;-62
2022/06/25 10:05:23;;;;;;;4.00;1.98;;;;;;;;;;5113174;28;20032;-61
2022/06/25 10:08:00;;;;;;;7.70;2.10;;;;;;;;;;5114878;28;20070;-61
2022/06/25 10:10:48;;;;;;;7.10;2.30;;;;;;;;;;5108902;28;20040;-60
2022/06/25 10:13:14;;;;;;;6.30;2.03;;;;;;;;;;5114124;28;20038;-61
2022/06/25 10:15:40;;;;;;;3.33;2.13;;;;;;;;;;5112745;28;20028;-61
2022/06/25 10:18:11;;;;;;;6.78;2.50;;;;;;;;;;5111678;28;20089;-61
2022/06/25 10:20:39;;;;;;;8.57;2.20;;;;;;;;;;5090815;28;20396;-61
2022/06/25 10:23:06;;;;;;;7.05;2.10;;;;;;;;;;5106718;28;20395;-61
2022/06/25 10:25:33;;;;;;;5.40;2.17;;;;;;;;;;5114904;28;20035;-61
2022/06/25 10:28:06;;;;;;;3.67;1.95;;;;;;;;;;5111962;28;20134;-60
2022/06/25 10:30:44;;;;;;;3.00;2.03;;;;;;;;;;5105441;28;20032;-61
2022/06/25 10:33:11;;;;;;;2.65;2.00;;;;;;;;;;5095408;28;20439;-61
2022/06/25 10:35:39;;;;;;;3.55;1.80;;;;;;;;;;5105948;28;20028;-62
2022/06/25 10:38:10;;;;;;;4.60;1.92;;;;;;;;;;5106402;28;20062;-61
2022/06/25 10:40:48;;;;;;;3.60;2.00;;;;;;;;;;5111872;28;20024;-61
2022/06/25 10:43:34;;;;;;;4.35;1.90;;;;;;;;;;5113134;28;20198;-61
2022/06/25 10:46:31;;;;;;;3.22;1.90;;;;;;;;;;5113471;28;20019;-61
2022/06/25 10:49:10;;;;;;;3.60;1.98;;;;;;;;;;5094217;28;20491;-61
2022/06/25 10:51:43;;;;;;;6.18;2.22;;;;;;;;;;5106099;28;20096;-60
2022/06/25 10:54:27;;;;;;;5.40;2.13;;;;;;;;;;5114374;28;20503;-60
2022/06/25 10:56:55;;;;;;;3.63;1.95;;;;;;;;;;5113228;28;20383;-60
2022/06/25 10:59:37;;;;;;;4.95;2.00;;;;;;;;;;5112295;28;20055;-61
2022/06/25 11:02:09;;;;;;;7.57;2.20;;;;;;;;;;5109537;28;20429;-61
2022/06/25 11:04:36;;;;;;;4.88;2.10;;;;;;;;;;5099220;28;20366;-61
2022/06/25 11:07:11;;;;;;;4.47;1.75;;;;;;;;;;5102156;28;20400;-61
2022/06/25 11:09:37;;;;;;;4.00;2.10;;;;;;;;;;5100981;28;20035;-62
2022/06/25 11:12:05;;;;;;;6.50;2.00;;;;;;;;;;5101142;28;20467;-62
2022/06/25 11:14:31;;;;;;;5.90;2.10;;;;;;;;;;5108212;28;20110;-62
2022/06/25 11:16:57;;;;;;;3.90;1.90;;;;;;;;;;5106895;28;20107;-62
2022/06/25 11:19:24;;;;;;;3.78;2.00;;;;;;;;;;5111002;28;20126;-62
2022/06/25 11:21:50;;;;;;;3.97;2.10;;;;;;;;;;5094345;28;20047;-62
2022/06/25 11:24:21;;;;;;;3.78;1.80;;;;;;;;;;5103587;28;20472;-62
2022/06/25 11:29:47;;;;;;;2.90;1.80;;;;;;;;;;5107997;28;20043;-62
2022/06/25 11:32:23;;;;;;;3.60;1.90;;;;;;;;;;5103753;28;20493;-65
2022/06/25 11:34:54;;;;;;;3.90;1.90;;;;;;;;;;5113640;28;20036;-64
2022/06/25 11:37:20;;;;;;;5.13;2.08;;;;;;;;;;5111478;28;20036;-66
2022/06/25 11:39:47;;;;;;;5.85;1.90;;;;;;;;;;5112300;28;20024;-65
2022/06/25 11:42:14;;;;;;;4.10;1.80;;;;;;;;;;5112440;28;20468;-66
2022/06/25 11:44:43;;;;;;;5.72;2.05;;;;;;;;;;5112868;28;20036;-64
2022/06/25 11:47:12;;;;;;;3.88;2.20;;;;;;;;;;5112805;28;20044;-66
2022/06/25 11:49:39;;;;;;;2.53;1.70;;;;;;;;;;5112568;28;20330;-66
2022/06/25 11:52:06;;;;;;;3.72;1.80;;;;;;;;;;5111519;28;20057;-65
2022/06/25 11:54:36;;;;;;;5.05;1.92;;;;;;;;;;5112137;28;20487;-66
2022/06/25 11:57:02;;;;;;;3.45;1.77;;;;;;;;;;5111835;28;20043;-66
2022/06/25 11:59:31;;;;;;;5.40;2.10;;;;;;;;;;5112424;28;20077;-65
2022/06/25 12:01:59;;;;;;;4.35;2.00;;;;;;;;;;5105808;28;20115;-64
2022/06/25 12:04:26;;;;;;;5.15;1.90;;;;;;;;;;5092348;28;20085;-65
2022/06/25 12:06:52;;;;;;;3.65;1.80;;;;;;;;;;5110111;28;20031;-74
2022/06/25 12:09:19;;;;;;;4.10;2.10;;;;;;;;;;5092279;28;20043;-74
2022/06/25 12:11:52;;;;;;;6.20;2.00;;;;;;;;;;5093929;28;20131;-75
2022/06/25 12:14:36;;;;;;;4.55;1.90;;;;;;;;;;5112867;28;20030;-75
2022/06/25 12:17:05;;;;;;;3.50;1.80;;;;;;;;;;5111421;28;20039;-74
2022/06/25 12:19:50;;;;;;;5.00;1.90;;;;;;;;;;5102123;28;20056;-74
2022/06/25 12:22:19;;;;;;;3.92;1.70;;;;;;;;;;5099734;28;20042;-73
2022/06/25 12:24:46;;;;;;;4.57;2.00;;;;;;;;;;5099443;28;20028;-76
2022/06/25 12:27:11;;;;;;;2.42;1.65;;;;;;;;;;5092399;28;20044;-74
2022/06/25 12:29:37;;;;;;;5.75;1.85;;;;;;;;;;5112267;28;20019;-76
2022/06/25 12:32:02;;;;;;;6.50;1.90;;;;;;;;;;5112977;28;20023;-75
2022/06/25 12:34:28;;;;;;;4.53;2.00;;;;;;;;;;5111870;28;20115;-74
2022/06/25 12:36:55;;;;;;;3.10;2.00;;;;;;;;;;5098420;28;20027;-62
2022/06/25 12:39:46;;;;;;;5.50;2.00;;;;;;;;;;5108939;28;20028;-65
2022/06/25 12:42:14;;;;;;;3.00;1.80;;;;;;;;;;5091811;28;20058;-61
2022/06/25 12:44:41;;;;;;;5.95;1.90;;;;;;;;;;5092973;28;20044;-62
2022/06/25 12:47:12;;;;;;;5.70;2.08;;;;;;;;;;5112048;28;20035;-63
2022/06/25 12:49:47;;;;;;;4.78;1.80;;;;;;;;;;5108891;28;20039;-62
2022/06/25 12:52:16;;;;;;;4.47;2.10;;;;;;;;;;5094083;28;20035;-61
2022/06/25 12:54:49;;;;;;;5.43;2.17;;;;;;;;;;5092302;28;20066;-62
2022/06/25 12:57:21;;;;;;;3.35;1.88;;;;;;;;;;5112102;28;20035;-62
2022/06/25 12:59:46;;;;;;;4.45;2.00;;;;;;;;;;5085388;28;20127;-61
2022/06/25 13:02:12;;;;;;;3.30;2.00;;;;;;;;;;5092821;28;20115;-61
2022/06/25 13:04:37;;;;;;;3.72;1.75;;;;;;;;;;5097441;28;20464;-60
2022/06/25 13:07:03;;;;;;;4.72;2.03;;;;;;;;;;5108730;28;20157;-63
2022/06/25 13:09:28;;;;;;;6.22;1.98;;;;;;;;;;5090668;28;20047;-62
2022/06/25 13:11:54;;;;;;;7.35;1.80;;;;;;;;;;5106819;28;20038;-62
2022/06/25 13:14:19;;;;;;;3.90;1.90;;;;;;;;;;5111012;28;20508;-61
2022/06/25 13:16:45;;;;;;;2.90;1.60;;;;;;;;;;5092285;28;20015;-62
2022/06/25 13:19:10;;;;;;;2.92;1.60;;;;;;;;;;5108633;28;20066;-61
2022/06/25 13:21:36;;;;;;;4.38;1.75;;;;;;;;;;5110647;28;20031;-61
2022/06/25 13:24:02;;;;;;;5.05;1.70;;;;;;;;;;5110883;28;20057;-62
2022/06/25 13:26:27;;;;;;;4.00;1.73;;;;;;;;;;5091088;28;20031;-63
2022/06/25 13:28:52;;;;;;;3.22;1.80;;;;;;;;;;5107242;28;20028;-61
2022/06/25 13:31:18;;;;;;;3.90;1.88;;;;;;;;;;5096866;28;20375;-62
2022/06/25 13:33:43;;;;;;;2.30;1.80;;;;;;;;;;5109758;28;20862;-61
2022/06/25 13:36:09;;;;;;;7.20;1.85;;;;;;;;;;5115576;28;20043;-61
2022/06/25 13:38:36;;;;;;;3.42;1.60;;;;;;;;;;5113023;28;20027;-62
2022/06/25 13:41:01;;;;;;;3.10;1.67;;;;;;;;;;5114951;28;20059;-62
2022/06/25 13:43:27;;;;;;;3.05;1.58;;;;;;;;;;5113481;28;20062;-64
2022/06/25 13:45:52;;;;;;;3.65;1.70;;;;;;;;;;5114950;28;20036;-61
2022/06/25 13:48:18;;;;;;;4.75;1.70;;;;;;;;;;5113324;28;20039;-60
2022/06/25 13:50:43;;;;;;;4.15;1.92;;;;;;;;;;5114467;28;20085;-61
2022/06/25 13:53:10;;;;;;;6.55;2.00;;;;;;;;;;5113551;28;20478;-62
2022/06/25 13:55:36;;;;;;;7.15;2.05;;;;;;;;;;5113904;28;20031;-62
2022/06/25 13:58:02;;;;;;;6.60;2.10;;;;;;;;;;5112169;28;20023;-62
2022/06/25 14:00:27;;;;;;;3.95;1.95;;;;;;;;;;5114847;28;20027;-65
2022/06/25 14:02:53;;;;;;;4.07;2.00;;;;;;;;;;5113332;28;20027;-63
2022/06/25 14:05:18;;;;;;;4.90;2.00;;;;;;;;;;5110398;28;20044;-63
2022/06/25 14:07:43;;;;;;;4.55;2.10;;;;;;;;;;5107322;28;20083;-62
2022/06/25 14:10:10;;;;;;;6.55;1.90;;;;;;;;;;5106653;28;20053;-62
2022/06/25 14:12:36;;;;;;;2.97;1.85;;;;;;;;;;5114353;28;20028;-62
2022/06/25 14:15:02;;;;;;;4.25;1.70;;;;;;;;;;5114015;28;20028;-64
2022/06/25 14:17:27;;;;;;;8.88;2.13;;;;;;;;;;5097425;28;20032;-62
2022/06/25 14:19:53;;;;;;;4.38;1.88;;;;;;;;;;5103269;28;20036;-63
2022/06/25 14:22:18;;;;;;;5.25;2.10;;;;;;;;;;5115212;28;20096;-64
2022/06/25 14:27:28;;;;;;;4.88;2.25;;;;;;;;;;5094237;28;20039;-64
2022/06/25 14:29:53;;;;;;;2.95;1.73;;;;;;;;;;5097425;28;20032;-64
2022/06/25 14:32:18;;;;;;;4.10;1.95;;;;;;;;;;5110426;28;20485;-63
2022/06/25 14:34:44;;;;;;;4.15;1.80;;;;;;;;;;5111361;28;20042;-64
2022/06/25 14:42:37;;;;;;;5.18;1.83;;;;;;;;;;5115149;28;20035;-64
2022/06/25 14:45:03;;;;;;;6.57;1.80;;;;;;;;;;5111841;28;20039;-65
2022/06/25 14:47:28;;;;;;;3.97;1.80;;;;;;;;;;5108746;28;20428;-65
2022/06/25 14:49:54;;;;;;;2.65;1.70;;;;;;;;;;5114565;28;20027;-64
2022/06/25 14:52:19;;;;;;;2.53;1.90;;;;;;;;;;5109231;28;20211;-64
2022/06/25 14:54:45;;;;;;;4.60;1.90;;;;;;;;;;5107167;28;20455;-63
2022/06/25 14:57:10;;;;;;;2.90;1.75;;;;;;;;;;5093544;28;20041;-64
2022/06/25 14:59:37;;;;;;;3.17;1.80;;;;;;;;;;5113773;28;20089;-64